Search for airport 
image banner adimage banner adimage banner ad
image banner ad

56PN - Atlantic Refining&Marketing Corp

Located in Philadelphia, United States

ICAO - 56PN, IATA -

Data provided by Airmate  

General information

Coordinates: N39°55'11" W75°11'48"
Elevation is 30 feet MSL.
Magnetic variation is -11° East
View others Airports in Pennsylvania

Operational data

Special qualification required
Current time UTC:
Current local time:
Weather at : KPHL - Philadelphia Intl ( 7 km )
METAR: KPHL 152054Z 33015KT 10SM SCT060 27/12 A2976 RMK AO2 SLP078 T02670117 58005 $
TAF: KPHL 152058Z 1521/1624 31013KT P6SM SCT040 FM160300 31005KT P6SM SKC FM161400 31010KT P6SM FEW050
View NOTAMs / SUP AIP / TFR affecting this airport [VIEW]
Communications frequencies: [VIEW]

Runways:

Airport contact information

Address: Philadelphia United States

Satellite view of 56PN